createdAt,value
2018-09-10T00:00:15.787Z,99.90
2018-09-10T00:02:43.195Z,99.90
2018-09-10T00:05:10.623Z,99.90
2018-09-10T00:07:38.073Z,99.90
2018-09-10T00:10:05.571Z,99.90
2018-09-10T00:12:33.061Z,99.90
2018-09-10T00:15:00.495Z,99.90
2018-09-10T00:17:27.942Z,99.90
2018-09-10T00:19:55.407Z,99.90
2018-09-10T00:22:22.824Z,99.90
2018-09-10T00:24:50.262Z,99.90
2018-09-10T00:27:17.749Z,99.90
2018-09-10T00:29:45.215Z,99.90
2018-09-10T00:32:12.652Z,99.90
2018-09-10T00:34:40.107Z,99.90
2018-09-10T00:37:07.536Z,99.90
2018-09-10T00:39:34.979Z,99.90
2018-09-10T00:42:02.560Z,99.90
2018-09-10T00:44:30.020Z,99.90
2018-09-10T00:46:57.456Z,99.90
2018-09-10T00:49:24.916Z,99.90
2018-09-10T00:51:52.572Z,99.90
2018-09-10T00:54:20.017Z,99.90
2018-09-10T00:56:47.462Z,99.90
2018-09-10T00:59:14.899Z,99.90
2018-09-10T01:01:42.382Z,99.90
2018-09-10T01:04:09.903Z,99.90
2018-09-10T01:06:37.350Z,99.90
2018-09-10T01:09:06.711Z,99.90
2018-09-10T01:11:34.417Z,99.90
2018-09-10T01:14:01.857Z,99.90
2018-09-10T01:16:29.310Z,99.90
2018-09-10T01:18:57.522Z,99.90
2018-09-10T01:21:25.493Z,99.90
2018-09-10T01:23:53.403Z,99.90
2018-09-10T01:26:21.423Z,99.90
2018-09-10T01:28:49.333Z,99.90
2018-09-10T01:31:17.257Z,99.90
2018-09-10T01:33:50.343Z,99.90
2018-09-10T01:36:17.767Z,99.90
2018-09-10T01:38:45.190Z,99.90
2018-09-10T01:41:12.613Z,99.90
2018-09-10T01:43:40.092Z,99.90
2018-09-10T01:46:07.527Z,99.90
2018-09-10T01:48:34.956Z,99.90
2018-09-10T01:51:02.459Z,99.90
2018-09-10T01:53:29.915Z,99.90
2018-09-10T01:55:57.363Z,99.90
2018-09-10T01:58:24.820Z,99.90
2018-09-10T02:00:52.235Z,99.90
2018-09-10T02:03:20.022Z,99.90
2018-09-10T02:05:47.424Z,99.90
2018-09-10T02:08:14.854Z,99.90
2018-09-10T02:10:42.278Z,99.90
2018-09-10T02:13:09.714Z,99.90
2018-09-10T02:15:42.847Z,99.90
2018-09-10T02:18:10.310Z,99.90
2018-09-10T02:20:37.737Z,99.90
2018-09-10T02:23:05.195Z,99.90
2018-09-10T02:25:32.632Z,99.90
2018-09-10T02:28:00.060Z,99.90
2018-09-10T02:30:27.498Z,99.90
2018-09-10T02:32:54.931Z,99.90
2018-09-10T02:35:22.371Z,99.90
2018-09-10T02:37:49.809Z,99.90
2018-09-10T02:40:17.304Z,99.90
2018-09-10T02:42:44.747Z,99.90
2018-09-10T02:45:12.224Z,99.90
2018-09-10T02:47:39.717Z,99.90
2018-09-10T02:50:07.225Z,99.90
2018-09-10T02:52:34.752Z,99.90
2018-09-10T02:55:02.332Z,99.90
2018-09-10T02:57:29.683Z,99.90
2018-09-10T02:59:57.097Z,99.90
2018-09-10T03:02:24.559Z,99.90
2018-09-10T03:04:51.951Z,99.90
2018-09-10T03:07:19.395Z,99.90
2018-09-10T03:09:46.832Z,99.90
2018-09-10T03:12:14.261Z,99.90
2018-09-10T03:14:41.707Z,99.90
2018-09-10T03:17:09.152Z,99.90
2018-09-10T03:19:36.591Z,99.90
2018-09-10T03:22:04.151Z,99.90
2018-09-10T03:24:31.615Z,99.90
2018-09-10T03:26:59.048Z,99.90
2018-09-10T03:29:26.518Z,99.90
2018-09-10T03:31:53.964Z,99.90
2018-09-10T03:34:21.399Z,99.90
2018-09-10T03:36:48.801Z,99.90
2018-09-10T03:39:16.304Z,99.90
2018-09-10T03:41:43.743Z,99.90
2018-09-10T03:44:11.171Z,99.90
2018-09-10T03:46:38.591Z,99.90
2018-09-10T03:49:06.058Z,99.90
2018-09-10T03:51:33.518Z,99.90
2018-09-10T03:54:01.227Z,99.90
2018-09-10T03:56:28.687Z,99.90
2018-09-10T03:58:56.211Z,99.90
2018-09-10T04:01:23.782Z,99.90
2018-09-10T04:03:51.211Z,99.90
2018-09-10T04:06:18.695Z,99.90
2018-09-10T04:08:46.188Z,99.90
2018-09-10T04:11:13.703Z,99.90
2018-09-10T04:13:41.196Z,99.90
2018-09-10T04:16:08.641Z,99.90
2018-09-10T04:18:36.220Z,99.90
2018-09-10T04:21:03.732Z,99.90
2018-09-10T04:23:31.279Z,99.90
2018-09-10T04:25:58.857Z,99.90
2018-09-10T04:28:26.213Z,99.90
2018-09-10T04:30:54.743Z,99.90
2018-09-10T04:33:22.361Z,99.90
2018-09-10T04:35:49.815Z,99.90
2018-09-10T04:38:17.273Z,99.90
2018-09-10T04:40:44.706Z,99.90
2018-09-10T04:43:12.163Z,99.90
2018-09-10T04:45:39.670Z,99.90
2018-09-10T04:48:07.125Z,99.90
2018-09-10T04:50:34.571Z,99.90
2018-09-10T04:53:02.011Z,99.90
2018-09-10T04:55:29.510Z,99.90
2018-09-10T04:57:57.072Z,99.90
2018-09-10T05:00:24.507Z,99.90
2018-09-10T05:02:51.938Z,99.90
2018-09-10T05:05:19.456Z,99.90
2018-09-10T05:07:46.951Z,99.90
2018-09-10T05:10:14.420Z,99.90
2018-09-10T05:12:41.891Z,99.90
2018-09-10T05:15:09.576Z,99.90
2018-09-10T05:17:37.035Z,99.90
2018-09-10T05:20:05.664Z,99.90
2018-09-10T05:22:34.175Z,99.90
2018-09-10T05:25:01.708Z,99.90
2018-09-10T05:27:29.119Z,99.90
2018-09-10T05:29:56.591Z,99.90
2018-09-10T05:32:24.092Z,99.90
2018-09-10T05:34:51.594Z,99.90
2018-09-10T05:37:19.295Z,99.90
2018-09-10T05:39:47.255Z,99.90
2018-09-10T05:42:14.705Z,99.90
2018-09-10T05:44:42.239Z,99.90
2018-09-10T05:47:09.812Z,99.90
2018-09-10T05:49:37.311Z,99.90
2018-09-10T05:52:04.850Z,99.90
2018-09-10T05:54:32.288Z,99.90
2018-09-10T05:56:59.724Z,99.90
2018-09-10T05:59:27.174Z,99.90
2018-09-10T06:01:55.396Z,99.90
2018-09-10T06:04:22.857Z,99.90
2018-09-10T06:06:50.392Z,99.90
2018-09-10T06:09:17.857Z,99.90
2018-09-10T06:11:45.280Z,99.90
2018-09-10T06:14:12.723Z,99.90
2018-09-10T06:16:40.341Z,99.90
2018-09-10T06:19:07.740Z,99.90
2018-09-10T06:21:35.175Z,99.90
2018-09-10T06:24:02.566Z,99.90
2018-09-10T06:26:30.184Z,99.90
2018-09-10T06:28:57.663Z,99.90
2018-09-10T06:31:25.263Z,99.90
2018-09-10T06:33:53.847Z,99.90
2018-09-10T06:36:22.551Z,99.90
2018-09-10T06:38:50.007Z,99.90
2018-09-10T06:41:17.419Z,99.90
2018-09-10T06:43:44.868Z,99.90
2018-09-10T06:46:12.280Z,99.90
2018-09-10T06:48:39.732Z,99.90
2018-09-10T06:51:07.259Z,99.90
2018-09-10T06:53:34.843Z,99.90
2018-09-10T06:56:04.491Z,99.90
2018-09-10T06:58:32.189Z,99.90
2018-09-10T07:00:59.999Z,99.90
2018-09-10T07:03:27.624Z,99.90
2018-09-10T07:05:55.123Z,99.90
2018-09-10T07:08:22.607Z,99.90
2018-09-10T07:10:51.250Z,99.90
2018-09-10T07:13:18.832Z,99.90
2018-09-10T07:15:46.281Z,99.90
2018-09-10T07:18:14.797Z,99.90
2018-09-10T07:20:42.331Z,99.90
2018-09-10T07:23:09.793Z,99.90
2018-09-10T07:25:37.285Z,99.90
2018-09-10T07:28:04.915Z,99.90
2018-09-10T07:30:32.372Z,99.90
2018-09-10T07:32:59.768Z,99.90
2018-09-10T07:35:27.203Z,99.90
2018-09-10T07:37:54.663Z,99.90
2018-09-10T07:40:22.112Z,99.90
2018-09-10T07:42:49.640Z,99.90
2018-09-10T07:45:17.105Z,99.90
2018-09-10T07:47:44.673Z,99.90
2018-09-10T07:50:12.176Z,99.90
2018-09-10T07:52:39.611Z,99.90
2018-09-10T07:55:07.057Z,99.90
2018-09-10T07:57:35.057Z,99.90
2018-09-10T08:00:02.591Z,99.90
2018-09-10T08:02:30.249Z,99.90
2018-09-10T08:04:57.721Z,99.90
2018-09-10T08:07:25.686Z,99.90
2018-09-10T08:09:53.394Z,99.90
2018-09-10T08:12:20.876Z,99.90
2018-09-10T08:14:48.289Z,99.90
2018-09-10T08:17:15.728Z,99.90
2018-09-10T08:19:43.267Z,99.90
2018-09-10T08:22:10.703Z,99.90
2018-09-10T08:24:38.136Z,99.90
2018-09-10T08:27:05.578Z,99.90
2018-09-10T08:29:33.028Z,99.90
2018-09-10T08:32:00.718Z,99.90
2018-09-10T08:34:28.157Z,99.90
2018-09-10T08:36:55.587Z,99.90
2018-09-10T08:39:23.049Z,99.90
2018-09-10T08:41:50.558Z,99.90
2018-09-10T08:44:18.178Z,99.90
2018-09-10T08:46:45.624Z,99.90
2018-09-10T08:49:13.045Z,99.90
2018-09-10T08:51:40.515Z,99.90
2018-09-10T08:54:08.061Z,99.90
2018-09-10T08:56:35.424Z,99.90
2018-09-10T08:59:02.909Z,99.90
2018-09-10T09:01:30.340Z,99.90
2018-09-10T09:03:57.994Z,99.90
2018-09-10T09:06:25.832Z,99.90
2018-09-10T09:08:53.284Z,99.90
2018-09-10T09:11:20.711Z,99.90
2018-09-10T09:13:48.139Z,99.90
2018-09-10T09:16:15.591Z,99.60
2018-09-10T09:18:43.009Z,99.90
2018-09-10T09:21:11.371Z,99.90
2018-09-10T09:23:39.034Z,99.80
2018-09-10T09:26:06.507Z,99.40
2018-09-10T09:28:34.676Z,99.40
2018-09-10T09:31:02.105Z,99.40
2018-09-10T09:33:29.580Z,99.10
2018-09-10T09:36:02.692Z,98.80
2018-09-10T09:38:35.915Z,98.70
2018-09-10T09:41:09.265Z,98.70
2018-09-10T09:43:42.254Z,98.70
2018-09-10T09:46:12.007Z,98.70
2018-09-10T09:48:39.423Z,98.70
2018-09-10T09:51:06.904Z,98.70
2018-09-10T09:53:34.794Z,98.00
2018-09-10T09:56:02.243Z,98.00
2018-09-10T09:58:29.651Z,97.90
2018-09-10T10:01:02.687Z,97.90
2018-09-10T10:03:35.643Z,97.80
2018-09-10T10:06:03.110Z,97.80
2018-09-10T10:08:30.551Z,97.80
2018-09-10T10:10:58.040Z,97.90
2018-09-10T10:13:25.447Z,98.00
2018-09-10T10:15:53.506Z,97.90
2018-09-10T10:18:20.931Z,97.90
2018-09-10T10:20:48.401Z,97.90
2018-09-10T10:23:16.179Z,97.90
2018-09-10T10:25:43.639Z,97.70
2018-09-10T10:28:11.093Z,97.90
2018-09-10T10:30:38.499Z,97.90
2018-09-10T10:33:06.196Z,97.90
2018-09-10T10:35:33.664Z,98.00
2018-09-10T10:38:01.102Z,98.10
2018-09-10T10:40:28.503Z,97.90
2018-09-10T10:42:55.903Z,97.80
2018-09-10T10:45:23.307Z,97.80
2018-09-10T10:47:50.718Z,97.80
2018-09-10T10:50:18.185Z,97.20
2018-09-10T10:52:45.698Z,97.20
2018-09-10T10:55:13.124Z,97.30
2018-09-10T10:57:40.922Z,97.20
2018-09-10T11:00:08.360Z,97.20
2018-09-10T11:02:35.787Z,97.10
2018-09-10T11:05:03.234Z,96.00
2018-09-10T11:07:30.644Z,95.60
2018-09-10T11:09:58.075Z,94.10
2018-09-10T11:12:25.497Z,93.60
2018-09-10T11:14:52.924Z,93.60
2018-09-10T11:17:20.332Z,93.60
2018-09-10T11:19:47.751Z,93.50
2018-09-10T11:22:15.199Z,93.10
2018-09-10T11:24:42.616Z,92.90
2018-09-10T11:27:10.092Z,92.10
2018-09-10T11:29:37.551Z,87.00
2018-09-10T11:32:04.980Z,86.70
2018-09-10T11:34:32.470Z,86.10
2018-09-10T11:36:59.827Z,84.50
2018-09-10T11:39:27.302Z,82.80
2018-09-10T11:41:54.748Z,81.20
2018-09-10T11:44:22.152Z,77.40
2018-09-10T11:46:49.604Z,77.20
2018-09-10T11:49:17.035Z,77.10
2018-09-10T11:51:44.526Z,74.90
2018-09-10T11:54:11.971Z,75.10
2018-09-10T11:56:39.379Z,73.50
2018-09-10T11:59:06.847Z,73.70
2018-09-10T12:01:34.284Z,73.70
2018-09-10T12:04:01.804Z,73.70
2018-09-10T12:06:29.256Z,73.70
2018-09-10T12:08:56.719Z,72.90
2018-09-10T12:11:24.163Z,73.10
2018-09-10T12:13:51.676Z,74.50
2018-09-10T12:16:19.119Z,74.80
2018-09-10T12:18:46.610Z,75.70
2018-09-10T12:21:14.027Z,76.10
2018-09-10T12:23:41.560Z,76.20
2018-09-10T12:26:10.091Z,76.90
2018-09-10T12:28:37.559Z,77.70
2018-09-10T12:31:05.039Z,78.40
2018-09-10T12:33:32.451Z,78.70
2018-09-10T12:35:59.915Z,79.10
2018-09-10T12:38:27.331Z,78.60
2018-09-10T12:40:54.825Z,78.60
2018-09-10T12:43:23.415Z,79.10
2018-09-10T12:45:50.823Z,79.60
2018-09-10T12:48:18.258Z,82.20
2018-09-10T12:50:45.695Z,82.50
2018-09-10T12:53:13.456Z,82.70
2018-09-10T12:55:40.916Z,82.80
2018-09-10T12:58:08.364Z,82.80
2018-09-10T13:00:35.800Z,82.90
2018-09-10T13:03:03.281Z,82.60
2018-09-10T13:05:30.821Z,79.20
2018-09-10T13:07:58.640Z,79.30
2018-09-10T13:10:26.161Z,78.20
2018-09-10T13:12:53.886Z,79.10
2018-09-10T13:15:21.311Z,80.80
2018-09-10T13:17:48.761Z,82.80
2018-09-10T13:20:17.177Z,83.10
2018-09-10T13:22:44.783Z,84.90
2018-09-10T13:25:12.259Z,85.20
2018-09-10T13:27:40.296Z,85.40
2018-09-10T13:30:08.208Z,86.10
2018-09-10T13:32:35.884Z,87.60
2018-09-10T13:35:03.455Z,88.60
2018-09-10T13:37:31.704Z,88.50
2018-09-10T13:39:59.503Z,88.90
2018-09-10T13:42:27.249Z,88.80
2018-09-10T13:44:54.687Z,89.60
2018-09-10T13:47:22.558Z,90.00
2018-09-10T13:49:51.960Z,89.60
2018-09-10T13:52:19.657Z,89.80
2018-09-10T13:54:47.205Z,90.40
2018-09-10T13:57:14.630Z,90.40
2018-09-10T13:59:44.443Z,90.60
2018-09-10T14:02:11.982Z,90.60
2018-09-10T14:04:39.664Z,90.50
2018-09-10T14:07:07.204Z,90.20
2018-09-10T14:09:34.847Z,89.50
2018-09-10T14:12:03.012Z,89.20
2018-09-10T14:14:31.410Z,88.40
2018-09-10T14:16:58.984Z,88.50
2018-09-10T14:19:26.532Z,89.20
2018-09-10T14:21:54.333Z,89.10
2018-09-10T14:24:21.788Z,88.90
2018-09-10T14:26:49.255Z,89.30
2018-09-10T14:29:16.959Z,89.60
2018-09-10T14:31:44.441Z,89.50
2018-09-10T14:34:11.915Z,90.40
2018-09-10T14:36:39.580Z,90.50
2018-09-10T14:39:07.703Z,90.50
2018-09-10T14:41:35.203Z,90.60
2018-09-10T14:44:02.680Z,90.70
2018-09-10T14:46:30.121Z,90.80
2018-09-10T14:48:57.631Z,90.90
2018-09-10T14:51:25.059Z,91.10
2018-09-10T14:53:53.063Z,91.40
2018-09-10T14:56:20.618Z,91.80
2018-09-10T14:58:48.203Z,91.90
2018-09-10T15:01:15.743Z,91.80
2018-09-10T15:03:43.272Z,91.80
2018-09-10T15:06:10.843Z,91.70
2018-09-10T15:08:38.427Z,91.60
2018-09-10T15:11:05.992Z,91.60
2018-09-10T15:13:33.555Z,91.60
2018-09-10T15:16:01.038Z,91.10
2018-09-10T15:18:28.579Z,91.00
2018-09-10T15:20:56.068Z,91.10
2018-09-10T15:23:24.367Z,90.80
2018-09-10T15:25:52.917Z,90.90
2018-09-10T15:28:20.519Z,91.00
2018-09-10T15:30:48.223Z,91.70
2018-09-10T15:33:15.736Z,91.70
2018-09-10T15:35:43.315Z,92.00
2018-09-10T15:38:10.885Z,92.10
2018-09-10T15:40:40.593Z,92.20
2018-09-10T15:43:08.058Z,92.30
2018-09-10T15:45:36.518Z,92.50
2018-09-10T15:48:03.995Z,92.40
2018-09-10T15:50:33.953Z,92.50
2018-09-10T15:53:01.372Z,92.60
2018-09-10T15:55:28.876Z,92.10
2018-09-10T15:57:56.648Z,92.20
2018-09-10T16:00:24.099Z,92.90
2018-09-10T16:02:51.519Z,92.50
2018-09-10T16:05:18.990Z,92.80
2018-09-10T16:07:46.496Z,92.90
2018-09-10T16:10:13.944Z,93.10
2018-09-10T16:12:41.363Z,93.20
2018-09-10T16:15:08.803Z,93.20
2018-09-10T16:17:36.258Z,93.10
2018-09-10T16:20:03.928Z,93.10
2018-09-10T16:22:31.355Z,92.90
2018-09-10T16:24:58.823Z,93.10
2018-09-10T16:27:26.720Z,93.10
2018-09-10T16:29:54.184Z,93.10
2018-09-10T16:32:21.653Z,93.10
2018-09-10T16:34:49.127Z,93.20
2018-09-10T16:37:16.607Z,93.20
2018-09-10T16:39:44.044Z,92.90
2018-09-10T16:42:12.257Z,93.10
2018-09-10T16:44:39.966Z,93.00
2018-09-10T16:47:07.530Z,93.40
2018-09-10T16:49:35.053Z,93.40
2018-09-10T16:52:02.711Z,93.60
2018-09-10T16:54:30.182Z,93.70
2018-09-10T16:56:57.575Z,93.80
2018-09-10T16:59:25.018Z,93.50
2018-09-10T17:01:52.568Z,93.50
2018-09-10T17:04:20.271Z,93.50
2018-09-10T17:06:47.783Z,93.60
2018-09-10T17:09:15.340Z,93.70
2018-09-10T17:11:42.954Z,94.00
2018-09-10T17:14:10.407Z,94.10
2018-09-10T17:16:37.952Z,94.10
2018-09-10T17:19:08.942Z,94.20
2018-09-10T17:21:36.574Z,94.20
2018-09-10T17:24:04.051Z,94.30
2018-09-10T17:26:31.592Z,94.30
2018-09-10T17:29:13.818Z,94.50
2018-09-10T17:31:41.854Z,94.30
2018-09-10T17:34:09.765Z,94.40
2018-09-10T17:36:37.826Z,94.70
2018-09-10T17:39:07.122Z,94.80
2018-09-10T17:41:34.544Z,94.80
2018-09-10T17:44:02.649Z,94.90
2018-09-10T17:46:30.547Z,94.80
2018-09-10T17:48:58.002Z,95.10
2018-09-10T17:51:25.416Z,95.10
2018-09-10T17:53:52.854Z,95.20
2018-09-10T17:56:20.596Z,95.20
2018-09-10T17:58:48.076Z,95.50
2018-09-10T18:01:15.522Z,95.50
2018-09-10T18:03:43.116Z,95.60
2018-09-10T18:06:10.556Z,95.70
2018-09-10T18:08:37.975Z,95.80
2018-09-10T18:11:05.445Z,96.00
2018-09-10T18:13:33.995Z,96.10
2018-09-10T18:16:01.480Z,96.10
2018-09-10T18:18:29.036Z,96.10
2018-09-10T18:20:56.691Z,95.90
2018-09-10T18:23:24.471Z,96.00
2018-09-10T18:25:51.892Z,96.00
2018-09-10T18:28:19.355Z,96.10
2018-09-10T18:30:46.838Z,95.80
2018-09-10T18:33:14.335Z,96.00
2018-09-10T18:35:41.781Z,95.80
2018-09-10T18:38:09.223Z,95.90
2018-09-10T18:40:36.683Z,96.00
2018-09-10T18:43:04.192Z,96.00
2018-09-10T18:45:31.621Z,96.00
2018-09-10T18:47:59.047Z,96.10
2018-09-10T18:50:26.609Z,96.10
2018-09-10T18:52:54.256Z,96.00
2018-09-10T18:55:22.015Z,96.00
2018-09-10T18:57:49.754Z,96.10
2018-09-10T19:00:17.196Z,96.00
2018-09-10T19:02:45.005Z,96.00
2018-09-10T19:05:12.576Z,96.00
2018-09-10T19:07:40.286Z,96.00
2018-09-10T19:10:09.758Z,96.20
2018-09-10T19:12:37.676Z,96.20
2018-09-10T19:15:05.651Z,96.20
2018-09-10T19:17:33.615Z,96.30
2018-09-10T19:20:01.273Z,96.40
2018-09-10T19:22:28.982Z,96.30
2018-09-10T19:24:56.880Z,96.60
2018-09-10T19:27:24.555Z,96.70
2018-09-10T19:29:52.340Z,96.50
2018-09-10T19:32:20.190Z,96.60
2018-09-10T19:34:47.737Z,96.80
2018-09-10T19:37:15.247Z,96.80
2018-09-10T19:39:43.077Z,96.80
2018-09-10T19:42:10.797Z,97.00
2018-09-10T19:44:39.061Z,96.90
2018-09-10T19:47:07.019Z,97.20
2018-09-10T19:49:34.868Z,97.20
2018-09-10T19:52:03.084Z,97.10
2018-09-10T19:54:31.130Z,97.20
2018-09-10T19:56:59.077Z,97.40
2018-09-10T19:59:27.054Z,97.40
2018-09-10T20:01:55.299Z,97.30
2018-09-10T20:04:23.075Z,97.30
2018-09-10T20:06:50.536Z,97.50
2018-09-10T20:09:18.447Z,97.50
2018-09-10T20:11:46.442Z,97.70
2018-09-10T20:14:15.200Z,97.70
2018-09-10T20:16:43.850Z,97.90
2018-09-10T20:19:12.132Z,98.10
2018-09-10T20:21:39.747Z,98.00
2018-09-10T20:24:07.469Z,98.40
2018-09-10T20:26:35.004Z,98.50
2018-09-10T20:29:02.508Z,98.60
2018-09-10T20:31:30.025Z,98.50
2018-09-10T20:34:03.206Z,98.50
2018-09-10T20:36:30.629Z,98.40
2018-09-10T20:38:58.112Z,98.80
2018-09-10T20:41:25.560Z,99.10
2018-09-10T20:43:53.067Z,99.20
2018-09-10T20:46:20.543Z,99.30
2018-09-10T20:48:48.792Z,99.20
2018-09-10T20:51:16.212Z,99.40
2018-09-10T20:53:43.747Z,99.40
2018-09-10T20:56:11.251Z,99.40
2018-09-10T20:58:38.706Z,99.60
2018-09-10T21:01:06.198Z,99.60
2018-09-10T21:03:33.591Z,99.60
2018-09-10T21:06:04.475Z,99.70
2018-09-10T21:08:31.903Z,99.80
2018-09-10T21:10:59.438Z,99.80
2018-09-10T21:13:26.873Z,99.90
2018-09-10T21:15:54.399Z,99.90
2018-09-10T21:18:21.875Z,99.90
2018-09-10T21:20:49.294Z,99.90
2018-09-10T21:23:18.767Z,99.90
2018-09-10T21:25:46.369Z,99.90
2018-09-10T21:28:13.784Z,99.90
2018-09-10T21:30:41.265Z,99.90
2018-09-10T21:33:08.742Z,99.90
2018-09-10T21:35:36.188Z,99.90
2018-09-10T21:38:03.717Z,99.90
2018-09-10T21:40:31.292Z,99.90
2018-09-10T21:42:58.752Z,99.90
2018-09-10T21:45:26.323Z,99.90
2018-09-10T21:47:53.857Z,99.90
2018-09-10T21:50:21.284Z,99.90
2018-09-10T21:52:48.695Z,99.90
2018-09-10T21:55:16.166Z,99.90
2018-09-10T21:57:43.576Z,99.90
2018-09-10T22:00:11.280Z,99.90
2018-09-10T22:02:38.687Z,99.90
2018-09-10T22:05:06.899Z,99.90
2018-09-10T22:07:34.343Z,99.90
2018-09-10T22:10:01.781Z,99.90
2018-09-10T22:12:29.240Z,99.90
2018-09-10T22:14:56.683Z,99.90
2018-09-10T22:17:24.124Z,99.90
2018-09-10T22:19:51.643Z,99.90
2018-09-10T22:22:19.115Z,99.90
2018-09-10T22:24:46.640Z,99.90
2018-09-10T22:27:14.069Z,99.90
2018-09-10T22:29:41.686Z,99.90
2018-09-10T22:32:09.161Z,99.90
2018-09-10T22:34:36.634Z,99.90
2018-09-10T22:37:04.309Z,99.90
2018-09-10T22:39:31.791Z,99.90
2018-09-10T22:41:59.447Z,99.90
2018-09-10T22:44:28.138Z,99.90
2018-09-10T22:46:56.597Z,99.90
2018-09-10T22:49:24.401Z,99.90
2018-09-10T22:51:52.044Z,99.90
2018-09-10T22:54:19.572Z,99.90
2018-09-10T22:56:47.008Z,99.90
2018-09-10T22:59:14.487Z,99.90
2018-09-10T23:01:42.017Z,99.90
2018-09-10T23:04:09.491Z,99.90
2018-09-10T23:06:36.985Z,99.90
2018-09-10T23:09:06.126Z,99.90
2018-09-10T23:11:33.567Z,99.90
2018-09-10T23:14:00.979Z,99.90
2018-09-10T23:16:28.519Z,99.90
2018-09-10T23:18:55.928Z,99.90
2018-09-10T23:21:23.379Z,99.90
2018-09-10T23:23:50.872Z,99.90
2018-09-10T23:26:18.362Z,99.90
2018-09-10T23:28:45.843Z,99.90
2018-09-10T23:31:13.291Z,99.90
2018-09-10T23:33:40.753Z,99.90
2018-09-10T23:36:08.700Z,99.90
2018-09-10T23:41:04.416Z,99.90
2018-09-10T23:43:32.485Z,99.90
2018-09-10T23:46:00.306Z,99.90
2018-09-10T23:48:28.059Z,99.90
2018-09-10T23:50:55.794Z,99.90
2018-09-10T23:53:23.239Z,99.90
2018-09-10T23:55:50.728Z,99.90
2018-09-10T23:58:18.575Z,99.90
